createdAt,value
2019-04-10T00:02:07.100Z,94607.00
2019-04-10T00:04:36.718Z,94607.75
2019-04-10T00:07:12.676Z,94605.06
2019-04-10T00:09:36.040Z,94599.19
2019-04-10T00:12:05.408Z,94611.36
2019-04-10T00:14:34.519Z,94604.69
2019-04-10T00:17:03.184Z,94604.16
2019-04-10T00:19:32.870Z,94607.98
2019-04-10T00:22:02.739Z,94609.59
2019-04-10T00:24:32.302Z,94607.91
2019-04-10T00:27:02.073Z,94607.97
2019-04-10T00:29:30.806Z,94609.75
2019-04-10T00:32:01.696Z,94614.64
2019-04-10T00:34:29.761Z,94614.69
2019-04-10T00:36:58.364Z,94612.84
2019-04-10T00:39:26.984Z,94617.83
2019-04-10T00:41:56.676Z,94618.25
2019-04-10T00:44:25.826Z,94611.91
2019-04-10T00:46:54.854Z,94617.73
2019-04-10T00:49:23.953Z,94615.71
2019-04-10T00:51:52.649Z,94612.89
2019-04-10T00:54:21.697Z,94613.95
2019-04-10T00:56:50.671Z,94612.92
2019-04-10T00:59:19.849Z,94613.66
2019-04-10T01:01:48.534Z,94612.78
2019-04-10T01:04:18.131Z,94610.11
2019-04-10T01:06:46.915Z,94609.92
2019-04-10T01:09:15.517Z,94610.55
2019-04-10T01:11:44.130Z,94612.95
2019-04-10T01:14:13.691Z,94608.25
2019-04-10T01:16:42.314Z,94607.25
2019-04-10T01:19:12.001Z,94609.09
2019-04-10T01:21:40.606Z,94605.08
2019-04-10T01:24:09.214Z,94612.01
2019-04-10T01:26:37.830Z,94604.81
2019-04-10T01:29:06.436Z,94606.13
2019-04-10T01:31:35.154Z,94612.25
2019-04-10T01:34:03.746Z,94603.27
2019-04-10T01:36:33.297Z,94604.90
2019-04-10T01:39:02.171Z,94601.94
2019-04-10T01:41:30.778Z,94604.06
2019-04-10T01:43:59.623Z,94600.42
2019-04-10T01:46:28.533Z,94605.48
2019-04-10T01:48:57.507Z,94591.61
2019-04-10T01:51:26.182Z,94593.60
2019-04-10T01:53:54.807Z,94596.87
2019-04-10T01:56:30.230Z,94590.32
2019-04-10T01:58:53.822Z,94593.98
2019-04-10T02:01:29.635Z,94595.32
2019-04-10T02:03:58.542Z,94593.11
2019-04-10T02:06:27.464Z,94591.16
2019-04-10T02:08:56.400Z,94589.76
2019-04-10T02:11:25.941Z,94585.89
2019-04-10T02:13:54.603Z,94585.73
2019-04-10T02:16:24.614Z,94582.37
2019-04-10T02:18:54.115Z,94583.22
2019-04-10T02:21:23.463Z,94589.72
2019-04-10T02:23:52.398Z,94588.82
2019-04-10T02:26:21.328Z,94591.52
2019-04-10T02:28:51.279Z,94592.26
2019-04-10T02:31:21.551Z,94585.88
2019-04-10T02:33:51.773Z,94587.32
2019-04-10T02:36:21.302Z,94586.35
2019-04-10T02:39:03.085Z,94579.84
2019-04-10T02:41:21.579Z,94591.69
2019-04-10T02:43:51.275Z,94587.06
2019-04-10T02:46:20.066Z,94579.95
2019-04-10T02:48:50.094Z,94583.16
2019-04-10T02:51:20.034Z,94579.73
2019-04-10T02:53:50.194Z,94575.41
2019-04-10T02:56:20.810Z,94579.79
2019-04-10T02:58:51.341Z,94579.11
2019-04-10T03:01:19.970Z,94579.57
2019-04-10T03:03:50.121Z,94579.60
2019-04-10T03:06:18.971Z,94580.05
2019-04-10T03:09:05.951Z,94576.95
2019-04-10T03:11:20.033Z,94575.17
2019-04-10T03:13:49.067Z,94573.55
2019-04-10T03:16:17.782Z,94580.63
2019-04-10T03:18:47.282Z,94582.96
2019-04-10T03:21:15.968Z,94579.47
2019-04-10T03:23:45.434Z,94582.23
2019-04-10T03:26:15.221Z,94576.05
2019-04-10T03:28:44.176Z,94576.08
2019-04-10T03:31:13.620Z,94579.09
2019-04-10T03:34:05.538Z,94573.13
2019-04-10T03:36:40.197Z,94575.91
2019-04-10T03:39:10.624Z,94574.87
2019-04-10T03:41:40.149Z,94579.41
2019-04-10T03:44:08.788Z,94579.95
2019-04-10T03:46:39.946Z,94581.03
2019-04-10T03:49:07.801Z,94582.33
2019-04-10T03:51:36.668Z,94587.03
2019-04-10T03:54:05.396Z,94584.09
2019-04-10T03:56:34.052Z,94579.70
2019-04-10T03:59:02.876Z,94577.75
2019-04-10T04:01:32.041Z,94580.19
2019-04-10T04:04:01.494Z,94584.27
2019-04-10T04:06:30.133Z,94583.61
2019-04-10T04:09:06.891Z,94581.42
2019-04-10T04:11:30.045Z,94583.20
2019-04-10T04:13:59.782Z,94582.83
2019-04-10T04:16:28.439Z,94586.90
2019-04-10T04:18:57.656Z,94592.08
2019-04-10T04:21:26.251Z,94588.94
2019-04-10T04:23:55.207Z,94595.70
2019-04-10T04:26:23.847Z,94591.53
2019-04-10T04:28:52.448Z,94596.48
2019-04-10T04:31:21.227Z,94599.04
2019-04-10T04:33:49.837Z,94592.21
2019-04-10T04:36:18.538Z,94605.40
2019-04-10T04:38:47.174Z,94604.26
2019-04-10T04:41:15.814Z,94601.89
2019-04-10T04:43:45.986Z,94602.14
2019-04-10T04:46:14.754Z,94606.52
2019-04-10T04:48:43.407Z,94605.42
2019-04-10T04:51:11.999Z,94606.34
2019-04-10T04:53:41.814Z,94607.50
2019-04-10T04:56:11.512Z,94610.19
2019-04-10T04:58:40.161Z,94618.98
2019-04-10T05:01:08.766Z,94617.75
2019-04-10T05:03:37.601Z,94622.22
2019-04-10T05:06:06.167Z,94630.78
2019-04-10T05:08:34.779Z,94629.75
2019-04-10T05:11:04.343Z,94634.73
2019-04-10T05:13:32.954Z,94631.69
2019-04-10T05:16:02.639Z,94636.72
2019-04-10T05:18:31.735Z,94634.91
2019-04-10T05:21:00.935Z,94634.72
2019-04-10T05:23:29.590Z,94639.68
2019-04-10T05:25:59.197Z,94639.12
2019-04-10T05:28:29.951Z,94647.05
2019-04-10T05:31:01.022Z,94646.28
2019-04-10T05:33:30.912Z,94651.37
2019-04-10T05:35:59.593Z,94649.84
2019-04-10T05:38:29.137Z,94657.11
2019-04-10T05:40:57.775Z,94655.82
2019-04-10T05:43:26.408Z,94660.27
2019-04-10T05:45:55.163Z,94653.07
2019-04-10T05:48:24.967Z,94659.38
2019-04-10T05:51:02.370Z,94666.72
2019-04-10T05:53:24.651Z,94661.83
2019-04-10T05:55:53.789Z,94663.55
2019-04-10T05:58:22.460Z,94671.97
2019-04-10T06:00:51.454Z,94676.88
2019-04-10T06:03:20.725Z,94683.92
2019-04-10T06:05:49.337Z,94684.73
2019-04-10T06:08:18.177Z,94687.09
2019-04-10T06:10:47.808Z,94686.72
2019-04-10T06:13:17.167Z,94680.85
2019-04-10T06:15:45.791Z,94679.16
2019-04-10T06:18:15.307Z,94691.19
2019-04-10T06:20:45.163Z,94688.69
2019-04-10T06:23:14.779Z,94685.86
2019-04-10T06:25:43.715Z,94683.95
2019-04-10T06:28:12.954Z,94676.13
2019-04-10T06:30:41.869Z,94666.20
2019-04-10T06:33:11.636Z,94668.11
2019-04-10T06:35:40.356Z,94668.11
2019-04-10T06:38:09.008Z,94664.34
2019-04-10T06:40:37.737Z,94663.17
2019-04-10T06:43:08.508Z,94664.26
2019-04-10T06:45:37.207Z,94664.14
2019-04-10T06:48:06.817Z,94664.36
2019-04-10T06:50:35.595Z,94662.08
2019-04-10T06:53:04.245Z,94662.36
2019-04-10T06:55:32.803Z,94666.45
2019-04-10T06:58:02.617Z,94672.16
2019-04-10T07:00:32.389Z,94672.73
2019-04-10T07:03:01.319Z,94670.82
2019-04-10T07:05:37.943Z,94671.17
2019-04-10T07:08:10.972Z,94681.84
2019-04-10T07:10:40.870Z,94677.76
2019-04-10T07:13:04.332Z,94677.91
2019-04-10T07:15:32.391Z,94675.99
2019-04-10T07:18:03.143Z,94679.02
2019-04-10T07:20:32.266Z,94686.75
2019-04-10T07:23:00.883Z,94687.39
2019-04-10T07:25:29.892Z,94691.08
2019-04-10T07:27:58.603Z,94691.55
2019-04-10T07:30:28.026Z,94690.55
2019-04-10T07:32:56.673Z,94683.07
2019-04-10T07:35:25.748Z,94684.91
2019-04-10T07:37:57.761Z,94694.45
2019-04-10T07:40:25.013Z,94687.45
2019-04-10T07:42:54.579Z,94688.83
2019-04-10T07:45:26.431Z,94685.11
2019-04-10T07:47:53.958Z,94694.13
2019-04-10T07:50:22.678Z,94698.44
2019-04-10T07:52:52.115Z,94696.30
2019-04-10T07:55:21.108Z,94692.56
2019-04-10T07:57:51.776Z,94694.22
2019-04-10T08:00:20.690Z,94700.55
2019-04-10T08:02:49.304Z,94695.89
2019-04-10T08:05:18.858Z,94706.59
2019-04-10T08:07:47.507Z,94699.29
2019-04-10T08:10:16.251Z,94695.31
2019-04-10T08:12:50.092Z,94707.06
2019-04-10T08:15:15.226Z,94702.94
2019-04-10T08:17:44.446Z,94706.88
2019-04-10T08:20:13.399Z,94702.45
2019-04-10T08:22:42.754Z,94707.85
2019-04-10T08:25:11.412Z,94713.64
2019-04-10T08:27:40.064Z,94709.13
2019-04-10T08:30:11.094Z,94712.42
2019-04-10T08:32:50.976Z,94714.05
2019-04-10T08:35:11.241Z,94711.56
2019-04-10T08:37:40.982Z,94718.00
2019-04-10T08:40:11.543Z,94718.17
2019-04-10T08:42:41.583Z,94721.13
2019-04-10T08:45:11.386Z,94722.41
2019-04-10T08:47:40.045Z,94719.89
2019-04-10T08:50:09.783Z,94724.17
2019-04-10T08:52:39.078Z,94733.55
2019-04-10T08:55:08.263Z,94734.69
2019-04-10T08:57:36.885Z,94733.29
2019-04-10T09:00:07.993Z,94731.30
2019-04-10T09:02:38.019Z,94742.56
2019-04-10T09:05:06.836Z,94736.30
2019-04-10T09:07:35.923Z,94741.98
2019-04-10T09:10:05.947Z,94733.84
2019-04-10T09:12:34.700Z,94744.55
2019-04-10T09:15:03.432Z,94729.05
2019-04-10T09:17:31.999Z,94724.09
2019-04-10T09:20:00.707Z,94739.03
2019-04-10T09:22:41.887Z,94732.46
2019-04-10T09:25:00.703Z,94730.66
2019-04-10T09:27:29.341Z,94734.90
2019-04-10T09:29:57.962Z,94724.08
2019-04-10T09:32:26.612Z,94730.60
2019-04-10T09:34:56.185Z,94731.63
2019-04-10T09:37:24.796Z,94722.03
2019-04-10T09:39:54.707Z,94726.84
2019-04-10T09:42:23.799Z,94732.29
2019-04-10T09:44:52.801Z,94727.34
2019-04-10T09:47:22.765Z,94730.98
2019-04-10T09:49:51.514Z,94727.83
2019-04-10T09:52:20.217Z,94722.55
2019-04-10T09:54:48.961Z,94727.11
2019-04-10T09:57:18.537Z,94729.76
2019-04-10T09:59:47.367Z,94728.10
2019-04-10T10:02:16.673Z,94723.27
2019-04-10T10:04:46.293Z,94730.73
2019-04-10T10:07:14.900Z,94736.18
2019-04-10T10:09:43.521Z,94736.69
2019-04-10T10:12:12.280Z,94733.98
2019-04-10T10:14:42.157Z,94736.98
2019-04-10T10:17:10.845Z,94736.28
2019-04-10T10:19:40.709Z,94719.00
2019-04-10T10:22:09.436Z,94724.14
2019-04-10T10:24:38.482Z,94733.84
2019-04-10T10:27:07.498Z,94733.63
2019-04-10T10:29:36.167Z,94726.58
2019-04-10T10:32:04.884Z,94734.65
2019-04-10T10:34:34.581Z,94733.08
2019-04-10T10:37:03.947Z,94735.59
2019-04-10T10:39:32.762Z,94742.89
2019-04-10T10:42:01.328Z,94738.61
2019-04-10T10:44:30.220Z,94728.61
2019-04-10T10:46:59.954Z,94741.09
2019-04-10T10:49:28.787Z,94738.89
2019-04-10T10:51:57.404Z,94730.06
2019-04-10T10:54:26.817Z,94735.14
2019-04-10T10:56:57.137Z,94732.91
2019-04-10T10:59:27.344Z,94726.45
2019-04-10T11:01:56.072Z,94733.07
2019-04-10T11:04:24.729Z,94729.51
2019-04-10T11:06:59.381Z,94724.74
2019-04-10T11:09:23.994Z,94728.05
2019-04-10T11:11:53.745Z,94740.72
2019-04-10T11:14:23.656Z,94727.43
2019-04-10T11:16:53.555Z,94732.94
2019-04-10T11:19:23.458Z,94728.39
2019-04-10T11:21:52.428Z,94735.95
2019-04-10T11:24:21.245Z,94726.46
2019-04-10T11:26:50.510Z,94735.41
2019-04-10T11:29:21.815Z,94733.27
2019-04-10T11:31:50.639Z,94730.17
2019-04-10T11:34:19.271Z,94734.53
2019-04-10T11:36:48.748Z,94741.04
2019-04-10T11:39:23.359Z,94745.86
2019-04-10T11:41:50.306Z,94741.09
2019-04-10T11:44:20.347Z,94737.02
2019-04-10T11:46:49.576Z,94730.30
2019-04-10T11:49:22.198Z,94739.36
2019-04-10T11:51:52.729Z,94750.00
2019-04-10T11:54:25.044Z,94734.53
2019-04-10T11:56:53.357Z,94754.84
2019-04-10T11:59:23.652Z,94751.49
2019-04-10T12:01:58.130Z,94760.15
2019-04-10T12:04:23.291Z,94750.87
2019-04-10T12:06:55.095Z,94752.53
2019-04-10T12:10:08.120Z,94749.61
2019-04-10T12:11:53.070Z,94768.52
2019-04-10T12:14:21.716Z,94765.81
2019-04-10T12:16:51.511Z,94765.73
2019-04-10T12:19:22.718Z,94755.53
2019-04-10T12:21:50.601Z,94766.11
2019-04-10T12:24:19.303Z,94756.02
2019-04-10T12:26:47.907Z,94773.11
2019-04-10T12:29:16.550Z,94765.02
2019-04-10T12:31:48.352Z,94763.57
2019-04-10T12:34:18.016Z,94764.64
2019-04-10T12:36:46.868Z,94771.14
2019-04-10T12:39:16.200Z,94765.05
2019-04-10T12:41:45.829Z,94763.68
2019-04-10T12:44:15.627Z,94761.30
2019-04-10T12:46:45.566Z,94767.22
2019-04-10T12:49:15.070Z,94771.50
2019-04-10T12:51:43.819Z,94767.98
2019-04-10T12:54:12.423Z,94768.62
2019-04-10T12:56:42.092Z,94767.84
2019-04-10T12:59:11.127Z,94772.45
2019-04-10T13:01:40.812Z,94769.07
2019-04-10T13:04:09.631Z,94768.55
2019-04-10T13:06:38.292Z,94769.05
2019-04-10T13:09:11.830Z,94762.89
2019-04-10T13:11:39.273Z,94770.10
2019-04-10T13:14:08.453Z,94776.09
2019-04-10T13:16:37.001Z,94763.91
2019-04-10T13:19:05.616Z,94779.31
2019-04-10T13:21:34.682Z,94775.01
2019-04-10T13:24:03.719Z,94768.09
2019-04-10T13:26:32.380Z,94767.32
2019-04-10T13:29:00.919Z,94761.28
2019-04-10T13:31:29.730Z,94762.39
2019-04-10T13:33:58.390Z,94762.33
2019-04-10T13:36:27.283Z,94766.22
2019-04-10T13:38:56.127Z,94760.42
2019-04-10T13:41:24.743Z,94760.85
2019-04-10T13:43:53.985Z,94759.77
2019-04-10T13:46:22.700Z,94756.76
2019-04-10T13:48:51.480Z,94764.87
2019-04-10T13:51:20.055Z,94766.70
2019-04-10T13:53:48.701Z,94761.72
2019-04-10T13:56:17.487Z,94759.45
2019-04-10T13:58:46.751Z,94770.06
2019-04-10T14:01:21.286Z,94763.79
2019-04-10T14:03:50.374Z,94767.30
2019-04-10T14:06:19.260Z,94769.45
2019-04-10T14:09:04.488Z,94776.34
2019-04-10T14:11:19.363Z,94774.95
2019-04-10T14:13:48.361Z,94766.77
2019-04-10T14:16:17.014Z,94765.71
2019-04-10T14:18:46.151Z,94765.39
2019-04-10T14:21:16.051Z,94771.85
2019-04-10T14:23:45.338Z,94765.44
2019-04-10T14:26:42.112Z,94766.27
2019-04-10T14:29:07.156Z,94776.55
2019-04-10T14:31:39.181Z,94774.08
2019-04-10T14:34:07.801Z,94772.00
2019-04-10T14:36:36.446Z,94776.02
2019-04-10T14:39:16.740Z,94780.59
2019-04-10T14:41:42.512Z,94778.89
2019-04-10T14:44:12.437Z,94785.44
2019-04-10T14:46:42.118Z,94782.65
2019-04-10T14:49:11.141Z,94794.95
2019-04-10T14:51:40.809Z,94791.45
2019-04-10T14:54:09.554Z,94792.52
2019-04-10T14:56:38.157Z,94799.45
2019-04-10T14:59:07.194Z,94797.56
2019-04-10T15:01:35.927Z,94797.20
2019-04-10T15:04:04.697Z,94788.08
2019-04-10T15:06:33.440Z,94792.72
2019-04-10T15:09:02.021Z,94793.97
2019-04-10T15:11:30.902Z,94794.31
2019-04-10T15:13:59.560Z,94800.01
2019-04-10T15:16:29.274Z,94791.50
2019-04-10T15:18:58.483Z,94804.84
2019-04-10T15:21:27.166Z,94813.66
2019-04-10T15:23:55.766Z,94809.39
2019-04-10T15:26:24.494Z,94809.77
2019-04-10T15:28:54.108Z,94804.84
2019-04-10T15:31:24.962Z,94816.62
2019-04-10T15:33:53.831Z,94815.07
2019-04-10T15:36:22.773Z,94820.64
2019-04-10T15:38:52.479Z,94822.92
2019-04-10T15:41:21.283Z,94827.09
2019-04-10T15:43:49.989Z,94818.75
2019-04-10T15:46:19.153Z,94821.73
2019-04-10T15:48:48.807Z,94818.39
2019-04-10T15:51:18.237Z,94813.67
2019-04-10T15:53:47.301Z,94821.84
2019-04-10T15:56:16.124Z,94832.71
2019-04-10T15:58:45.774Z,94820.53
2019-04-10T16:01:18.081Z,94833.83
2019-04-10T16:03:47.185Z,94821.87
2019-04-10T16:06:15.924Z,94829.90
2019-04-10T16:08:44.831Z,94842.96
2019-04-10T16:11:38.412Z,94833.95
2019-04-10T16:14:17.885Z,94839.59
2019-04-10T16:17:01.161Z,94844.91
2019-04-10T16:19:37.145Z,94848.28
2019-04-10T16:22:12.033Z,94840.94
2019-04-10T16:24:40.840Z,94844.03
2019-04-10T16:27:09.474Z,94845.05
2019-04-10T16:29:38.251Z,94844.04
2019-04-10T16:32:08.611Z,94846.89
2019-04-10T16:34:37.211Z,94843.30
2019-04-10T16:37:06.115Z,94847.78
2019-04-10T16:39:34.747Z,94846.80
2019-04-10T16:42:03.358Z,94845.48
2019-04-10T16:44:33.031Z,94853.45
2019-04-10T16:47:01.683Z,94857.66
2019-04-10T16:49:30.915Z,94853.84
2019-04-10T16:52:00.790Z,94861.33
2019-04-10T16:54:29.464Z,94856.39
2019-04-10T16:56:58.276Z,94859.00
2019-04-10T16:59:27.839Z,94861.80
2019-04-10T17:01:57.314Z,94856.74
2019-04-10T17:04:26.168Z,94864.13
2019-04-10T17:06:54.780Z,94866.71
2019-04-10T17:09:25.490Z,94867.95
2019-04-10T17:11:56.148Z,94864.36
2019-04-10T17:14:24.690Z,94870.27
2019-04-10T17:16:53.710Z,94870.72
2019-04-10T17:19:23.616Z,94880.17
2019-04-10T17:21:52.426Z,94872.59
2019-04-10T17:24:21.275Z,94873.03
2019-04-10T17:26:51.001Z,94875.64
2019-04-10T17:29:20.799Z,94873.00
2019-04-10T17:31:49.471Z,94873.00
2019-04-10T17:34:18.731Z,94879.50
2019-04-10T17:36:47.412Z,94890.59
2019-04-10T17:39:18.018Z,94890.59
2019-04-10T17:41:48.162Z,94888.23
2019-04-10T17:44:17.972Z,94902.92
2019-04-10T17:46:47.061Z,94900.03
2019-04-10T17:49:17.010Z,94904.53
2019-04-10T17:51:45.947Z,94896.69
2019-04-10T17:54:14.793Z,94902.31
2019-04-10T17:56:44.416Z,94905.44
2019-04-10T17:59:14.108Z,94913.62
2019-04-10T18:01:43.248Z,94918.09
2019-04-10T18:04:11.894Z,94919.44
2019-04-10T18:06:43.891Z,94914.02
2019-04-10T18:09:11.751Z,94914.02
2019-04-10T18:11:41.435Z,94926.35
2019-04-10T18:14:11.147Z,94926.85
2019-04-10T18:16:40.121Z,94925.37
2019-04-10T18:19:08.787Z,94931.13
2019-04-10T18:21:37.410Z,94944.30
2019-04-10T18:24:06.273Z,94935.46
2019-04-10T18:26:36.036Z,94940.67
2019-04-10T18:29:05.949Z,94947.03
2019-04-10T18:31:34.803Z,94946.26
2019-04-10T18:34:07.066Z,94958.22
2019-04-10T18:36:33.860Z,94951.97
2019-04-10T18:39:02.484Z,94958.62
2019-04-10T18:41:31.845Z,94965.36
2019-04-10T18:44:00.573Z,94969.61
2019-04-10T18:46:29.356Z,94969.64
2019-04-10T18:48:58.983Z,94973.46
2019-04-10T18:51:27.767Z,94973.30
2019-04-10T18:53:57.313Z,94974.44
2019-04-10T18:56:27.188Z,94982.60
2019-04-10T18:59:10.629Z,94984.50
2019-04-10T19:01:50.211Z,94981.06
2019-04-10T19:04:27.438Z,94984.72
2019-04-10T19:07:00.758Z,94988.18
2019-04-10T19:09:30.678Z,94991.70
2019-04-10T19:12:00.343Z,94991.83
2019-04-10T19:14:30.235Z,94993.70
2019-04-10T19:17:00.424Z,94997.61
2019-04-10T19:19:29.240Z,95000.34
2019-04-10T19:21:57.953Z,95005.38
2019-04-10T19:24:28.142Z,95004.59
2019-04-10T19:26:57.806Z,94999.37
2019-04-10T19:29:27.579Z,95006.64
2019-04-10T19:31:58.386Z,95007.09
2019-04-10T19:34:27.519Z,95006.50
2019-04-10T19:36:56.411Z,95013.33
2019-04-10T19:39:26.224Z,95011.64
2019-04-10T19:41:55.657Z,95013.19
2019-04-10T19:44:24.518Z,95013.86
2019-04-10T19:46:53.587Z,95023.91
2019-04-10T19:49:22.249Z,95016.08
2019-04-10T19:51:50.930Z,95019.84
2019-04-10T19:54:19.514Z,95018.30
2019-04-10T19:56:48.822Z,95018.09
2019-04-10T19:59:18.695Z,95028.23
2019-04-10T20:01:48.471Z,95022.84
2019-04-10T20:04:17.388Z,95029.27
2019-04-10T20:06:46.805Z,95028.25
2019-04-10T20:09:16.588Z,95032.30
2019-04-10T20:11:52.042Z,95030.91
2019-04-10T20:14:16.767Z,95030.47
2019-04-10T20:16:45.396Z,95033.20
2019-04-10T20:19:14.974Z,95033.77
2019-04-10T20:21:45.763Z,95035.45
2019-04-10T20:24:14.008Z,95036.77
2019-04-10T20:26:43.375Z,95040.84
2019-04-10T20:29:12.979Z,95041.28
2019-04-10T20:31:41.692Z,95042.92
2019-04-10T20:34:11.443Z,95054.97
2019-04-10T20:36:40.252Z,95054.82
2019-04-10T20:39:12.738Z,95053.62
2019-04-10T20:41:49.489Z,95055.34
2019-04-10T20:44:11.850Z,95058.48
2019-04-10T20:46:40.452Z,95058.42
2019-04-10T20:49:10.021Z,95067.94
2019-04-10T20:51:39.805Z,95064.88
2019-04-10T20:54:08.660Z,95068.75
2019-04-10T20:56:37.266Z,95064.96
2019-04-10T20:59:05.864Z,95067.70
2019-04-10T21:01:35.115Z,95067.80
2019-04-10T21:04:03.718Z,95070.14
2019-04-10T21:06:32.315Z,95068.13
2019-04-10T21:09:01.184Z,95077.43
2019-04-10T21:11:29.751Z,95074.23
2019-04-10T21:13:58.662Z,95076.87
2019-04-10T21:16:27.520Z,95078.55
2019-04-10T21:18:56.207Z,95082.43
2019-04-10T21:21:24.823Z,95082.23
2019-04-10T21:23:54.263Z,95080.28
2019-04-10T21:26:23.940Z,95080.95
2019-04-10T21:28:53.622Z,95077.95
2019-04-10T21:31:53.135Z,95086.84
2019-04-10T21:34:30.368Z,95082.28
2019-04-10T21:36:59.770Z,95083.82
2019-04-10T21:39:28.346Z,95083.70
2019-04-10T21:42:08.395Z,95086.34
2019-04-10T21:44:27.294Z,95084.86
2019-04-10T21:46:57.104Z,95087.52
2019-04-10T21:49:26.146Z,95085.59
2019-04-10T21:51:55.816Z,95092.94
2019-04-10T21:54:24.741Z,95088.14
2019-04-10T21:56:53.550Z,95096.69
2019-04-10T21:59:22.654Z,95087.37
2019-04-10T22:01:51.400Z,95089.06
2019-04-10T22:04:21.008Z,95092.13
2019-04-10T22:07:14.702Z,95092.08
2019-04-10T22:09:52.935Z,95089.11
2019-04-10T22:12:31.701Z,95092.23
2019-04-10T22:14:56.205Z,95095.92
2019-04-10T22:17:24.827Z,95096.30
2019-04-10T22:19:54.919Z,95106.14
2019-04-10T22:22:23.727Z,95095.52
2019-04-10T22:24:52.665Z,95099.27
2019-04-10T22:27:21.266Z,95096.77
2019-04-10T22:29:50.052Z,95098.77
2019-04-10T22:32:18.868Z,95096.77
2019-04-10T22:34:47.478Z,95104.56
2019-04-10T22:37:16.919Z,95100.31
2019-04-10T22:39:45.618Z,95103.48
2019-04-10T22:42:16.040Z,95108.34
2019-04-10T22:44:45.657Z,95107.11
2019-04-10T22:47:15.067Z,95105.84
2019-04-10T22:49:43.673Z,95108.91
2019-04-10T22:52:12.264Z,95112.52
2019-04-10T22:54:40.928Z,95115.22
2019-04-10T22:57:10.458Z,95110.16
2019-04-10T22:59:40.361Z,95108.32
2019-04-10T23:02:12.927Z,95105.91
2019-04-10T23:04:39.616Z,95111.81
2019-04-10T23:07:09.301Z,95104.00
2019-04-10T23:09:38.249Z,95112.14
2019-04-10T23:12:07.885Z,95111.84
2019-04-10T23:14:36.645Z,95108.28
2019-04-10T23:17:05.330Z,95109.91
2019-04-10T23:19:34.212Z,95108.73
2019-04-10T23:22:03.101Z,95107.20
2019-04-10T23:24:31.871Z,95108.01
2019-04-10T23:27:01.742Z,95113.36
2019-04-10T23:29:30.982Z,95109.34
2019-04-10T23:32:00.094Z,95118.36
2019-04-10T23:34:29.015Z,95111.17
2019-04-10T23:36:58.319Z,95114.56
2019-04-10T23:39:28.134Z,95114.73
2019-04-10T23:41:57.034Z,95116.96
2019-04-10T23:44:25.648Z,95117.05
2019-04-10T23:46:54.252Z,95119.65
2019-04-10T23:49:23.538Z,95118.64
2019-04-10T23:51:52.245Z,95118.41
2019-04-10T23:54:21.486Z,95125.66
2019-04-10T23:56:50.810Z,95122.51
2019-04-10T23:59:20.442Z,95122.44
